Terminal Aerodrome Forecast
Issued by NWS

Home | Current Version | Previous Version | Text Only | Print | Product List | Glossary On
Versions: 1 2 3 4 5 6 7 8 9 10 11 12 13 14 15
176
FTUS46 KSEW 262320
TAFCLM
TAF
KCLM 262320Z 2700/2724 35006KT P6SM FEW050 BKN150
     FM270200 28012G22KT P6SM SCT050 BKN120
     FM270700 28010KT P6SM -SHRA BKN020 OVC040
     FM271000 29010KT P6SM VCSH OVC025
     FM271800 03006KT P6SM SCT030 BKN050
     FM272000 05006KT P6SM SCT050=

USA.gov is the U.S. government's official web portal to all federal, state and local government web resources and services.